Time;durP1;ratioP1;P1;durP2;ratioP2;P2;SDS_P1;SDS_P2;PMS_P1;PMS_P2;Temp;Humidity;BMP_temperature;BMP_pressure;BME280_temperature;BME280_humidity;BME280_pressure;Samples;Min_cycle;Max_cycle;Signal;HPM_P1;HPM_P2
2023/10/10 00:01:18;;;;;;;1355.30;998.90;;;14.50;99.90;;;;;;4692898;30;20550;-86
2023/10/10 00:03:45;;;;;;;1385.07;999.83;;;14.50;99.90;;;;;;4673816;30;20124;-86
2023/10/10 00:06:13;;;;;;;1327.85;988.22;;;14.60;99.90;;;;;;4695761;30;20061;-86
2023/10/10 00:08:41;;;;;;;1446.45;999.90;;;14.50;99.90;;;;;;4695926;30;20456;-86
2023/10/10 00:11:09;;;;;;;1433.40;999.90;;;14.50;99.90;;;;;;4695045;30;20061;-86
2023/10/10 00:13:42;;;;;;;1374.53;993.30;;;14.50;99.90;;;;;;4695317;30;20399;-86
2023/10/10 00:16:10;;;;;;;;;;;14.50;99.90;;;;;;4724565;30;20052;-86
2023/10/10 00:18:43;;;;;;;1317.03;986.80;;;14.50;99.90;;;;;;4683645;30;19927;-86
2023/10/10 00:21:20;;;;;;;;;;;14.40;99.90;;;;;;4684868;30;20049;-86
2023/10/10 00:23:47;;;;;;;1284.30;981.35;;;14.40;99.90;;;;;;4697888;30;20503;-86
2023/10/10 00:26:14;;;;;;;1349.63;996.60;;;14.50;99.90;;;;;;4698305;30;20507;-86
2023/10/10 00:28:45;;;;;;;1293.25;981.85;;;14.50;99.90;;;;;;4680520;30;20495;-86
2023/10/10 00:31:23;;;;;;;1381.95;999.70;;;14.50;99.90;;;;;;4682834;30;20469;-86
2023/10/10 00:33:51;;;;;;;1429.40;999.90;;;14.50;99.90;;;;;;4682361;30;20147;-86
2023/10/10 00:36:22;;;;;;;1359.32;994.78;;;14.50;99.90;;;;;;4679946;30;20526;-86
2023/10/10 00:38:50;;;;;;;1302.20;981.35;;;14.50;99.90;;;;;;4695699;30;20052;-86
2023/10/10 00:41:16;;;;;;;1288.40;977.40;;;14.50;99.90;;;;;;4694412;30;20091;-86
2023/10/10 00:43:42;;;;;;;1322.25;982.10;;;14.50;99.90;;;;;;4698870;30;20084;-86
2023/10/10 00:46:11;;;;;;;1385.70;994.85;;;14.50;99.90;;;;;;4697600;30;20055;-86
2023/10/10 00:48:38;;;;;;;1395.47;999.90;;;14.50;99.90;;;;;;4684390;30;20041;-86
2023/10/10 00:51:31;;;;;;;1369.93;999.90;;;14.50;99.90;;;;;;4705913;30;20092;-86
2023/10/10 00:56:54;;;;;;;1283.10;980.65;;;14.60;99.90;;;;;;4709674;30;20064;-86
2023/10/10 00:59:45;;;;;;;1294.60;981.22;;;14.50;99.90;;;;;;4699994;30;20056;-87
2023/10/10 01:02:17;;;;;;;1292.00;980.80;;;14.50;99.90;;;;;;4713340;30;20170;-86
2023/10/10 01:04:49;;;;;;;1289.18;977.72;;;14.50;99.90;;;;;;4698610;30;20527;-86
2023/10/10 01:07:18;;;;;;;1382.60;999.30;;;14.50;99.90;;;;;;4713990;30;20049;-86
2023/10/10 01:09:56;;;;;;;1285.57;968.65;;;14.50;99.90;;;;;;4712579;30;20053;-86
2023/10/10 01:12:32;;;;;;;1377.78;991.13;;;14.50;99.90;;;;;;4714045;30;20064;-86
2023/10/10 01:15:00;;;;;;;1289.25;978.05;;;14.50;99.90;;;;;;4697496;30;20071;-86
2023/10/10 01:17:33;;;;;;;1384.45;998.20;;;14.50;99.90;;;;;;4687311;30;20530;-86
2023/10/10 01:20:18;;;;;;;1329.93;978.72;;;14.50;99.90;;;;;;4691331;30;20379;-86
2023/10/10 01:22:48;;;;;;;1263.28;973.28;;;14.50;99.90;;;;;;4698294;30;20051;-86
2023/10/10 01:28:03;;;;;;;1395.10;998.80;;;14.50;99.90;;;;;;4712991;30;20383;-86
2023/10/10 01:33:16;;;;;;;1373.57;992.85;;;14.50;99.90;;;;;;4713588;30;20087;-86
2023/10/10 01:35:46;;;;;;;1346.63;999.72;;;14.50;99.90;;;;;;4712290;30;20048;-86
2023/10/10 01:38:34;;;;;;;1280.03;980.72;;;14.50;99.90;;;;;;4697947;30;20698;-86
2023/10/10 01:41:14;;;;;;;1338.72;996.10;;;14.60;99.90;;;;;;4691191;30;20170;-86
2023/10/10 01:43:45;;;;;;;1321.32;988.00;;;14.60;99.90;;;;;;4712303;30;20098;-86
2023/10/10 01:46:19;;;;;;;1284.07;976.05;;;14.60;99.90;;;;;;4713107;30;20053;-86
2023/10/10 01:48:46;;;;;;;1298.57;981.67;;;14.50;99.90;;;;;;4687251;30;20045;-86
2023/10/10 01:51:15;;;;;;;1306.45;984.10;;;14.60;99.90;;;;;;4712945;30;20147;-85
2023/10/10 01:53:41;;;;;;;1353.60;997.20;;;14.60;99.90;;;;;;4709755;30;20056;-86
2023/10/10 01:56:07;;;;;;;1401.03;999.90;;;14.60;99.90;;;;;;4691342;30;20486;-86
2023/10/10 01:58:36;;;;;;;1387.10;994.20;;;14.60;99.90;;;;;;4711907;30;20056;-86
2023/10/10 02:01:12;;;;;;;1276.45;984.17;;;14.60;99.90;;;;;;4713244;30;20056;-86
2023/10/10 02:03:39;;;;;;;1329.68;985.60;;;14.70;99.90;;;;;;4698307;30;20060;-86
2023/10/10 02:06:09;;;;;;;1359.05;999.45;;;14.60;99.90;;;;;;4698699;30;20938;-86
2023/10/10 02:08:38;;;;;;;1381.00;999.88;;;14.60;99.90;;;;;;4698446;30;20052;-86
2023/10/10 02:11:06;;;;;;;1283.30;977.17;;;14.70;99.90;;;;;;4713271;30;20096;-86
2023/10/10 02:13:33;;;;;;;1341.65;987.83;;;14.70;99.90;;;;;;4697918;30;20057;-86
2023/10/10 02:16:01;;;;;;;1326.82;993.92;;;14.70;99.90;;;;;;4697913;30;20111;-86
2023/10/10 02:18:39;;;;;;;1269.05;970.58;;;14.70;99.90;;;;;;4690453;30;20057;-86
2023/10/10 02:21:08;;;;;;;1345.78;993.92;;;14.70;99.90;;;;;;4697905;30;20051;-86
2023/10/10 02:23:53;;;;;;;1314.10;989.33;;;14.70;99.90;;;;;;4704187;30;20604;-86
2023/10/10 02:26:35;;;;;;;1343.72;998.33;;;14.70;99.90;;;;;;4711867;30;20575;-86
2023/10/10 02:31:56;;;;;;;1356.65;996.67;;;14.70;99.90;;;;;;4713109;30;20083;-86
2023/10/10 02:34:22;;;;;;;1341.30;995.65;;;14.70;99.90;;;;;;4712296;30;20167;-86
2023/10/10 02:37:13;;;;;;;1389.25;999.90;;;14.70;99.90;;;;;;4712520;30;20048;-86
2023/10/10 02:39:41;;;;;;;1347.63;997.88;;;14.70;99.90;;;;;;4694060;30;20498;-86
2023/10/10 02:42:25;;;;;;;1286.85;992.63;;;14.70;99.90;;;;;;4701108;30;20057;-86
2023/10/10 02:44:57;;;;;;;1310.45;987.33;;;14.70;99.90;;;;;;4712684;30;20047;-86
2023/10/10 02:47:57;;;;;;;1323.50;998.63;;;14.70;99.90;;;;;;4695015;30;20041;-86
2023/10/10 02:50:39;;;;;;;1310.18;987.85;;;14.80;99.90;;;;;;4695358;30;20521;-86
2023/10/10 02:53:07;;;;;;;1331.53;993.85;;;14.80;99.90;;;;;;4698244;30;20061;-86
2023/10/10 02:55:35;;;;;;;1349.25;999.75;;;14.80;99.90;;;;;;4697933;30;20045;-86
2023/10/10 02:58:00;;;;;;;1358.13;999.90;;;14.80;99.90;;;;;;4698651;30;20589;-86
2023/10/10 03:02:53;;;;;;;1335.15;999.42;;;14.80;99.90;;;;;;4715089;30;20056;-86
2023/10/10 03:05:38;;;;;;;1301.85;996.53;;;14.70;99.90;;;;;;4672933;30;20060;-86
2023/10/10 03:08:14;;;;;;;1303.32;994.15;;;14.80;99.90;;;;;;4697862;30;20139;-86
2023/10/10 03:10:45;;;;;;;1289.18;991.58;;;14.80;99.90;;;;;;4681196;30;20089;-86
2023/10/10 03:13:27;;;;;;;1376.68;999.90;;;14.80;99.90;;;;;;4682033;30;20053;-86
2023/10/10 03:16:41;;;;;;;1390.63;999.90;;;14.80;99.90;;;;;;4697636;30;20525;-86
2023/10/10 03:32:19;;;;;;;1343.30;999.90;;;14.80;99.90;;;;;;4712291;30;20065;-86
2023/10/10 03:34:56;;;;;;;1314.07;999.90;;;14.80;99.90;;;;;;4705336;30;20060;-86
2023/10/10 03:37:53;;;;;;;1402.22;999.90;;;14.90;99.90;;;;;;4714048;30;20095;-86
2023/10/10 05:25:13;;;;;;;1421.60;999.90;;;14.60;99.90;;;;;;4710128;30;20052;-85
2023/10/10 05:27:41;;;;;;;1329.95;999.08;;;14.70;99.90;;;;;;4697650;30;20048;-85
2023/10/10 05:30:23;;;;;;;1348.57;999.90;;;14.70;99.90;;;;;;4711174;30;20049;-85
2023/10/10 05:33:00;;;;;;;1372.22;999.90;;;14.70;99.90;;;;;;4723444;30;20049;-85
2023/10/10 05:35:29;;;;;;;1311.63;996.83;;;14.70;99.90;;;;;;4705374;30;20426;-85
2023/10/10 05:37:56;;;;;;;1307.45;997.50;;;14.70;99.90;;;;;;4710036;30;20057;-85
2023/10/10 05:40:24;;;;;;;1353.78;999.90;;;14.70;99.90;;;;;;4708166;30;20045;-85
2023/10/10 05:42:53;;;;;;;1354.97;999.90;;;14.70;99.90;;;;;;4705859;30;20198;-85
2023/10/10 05:45:20;;;;;;;1274.22;996.70;;;14.70;99.90;;;;;;4706388;30;20511;-85
2023/10/10 05:47:47;;;;;;;1327.93;999.90;;;14.70;99.90;;;;;;4698332;30;20103;-85
2023/10/10 05:50:13;;;;;;;1372.45;999.90;;;14.70;99.90;;;;;;4694401;30;20053;-85
2023/10/10 05:52:40;;;;;;;1280.55;988.47;;;14.70;99.90;;;;;;4712164;30;20149;-84
2023/10/10 05:55:07;;;;;;;1343.85;999.90;;;14.70;99.90;;;;;;4696959;30;20205;-85
2023/10/10 05:57:34;;;;;;;1292.88;995.55;;;14.70;99.90;;;;;;4710991;30;20056;-85
2023/10/10 05:59:59;;;;;;;1299.95;991.00;;;14.60;99.90;;;;;;4708585;30;20093;-85
2023/10/10 06:02:27;;;;;;;1380.43;999.90;;;14.60;99.90;;;;;;4711180;30;20041;-86
2023/10/10 06:04:53;;;;;;;1376.65;999.90;;;14.60;99.90;;;;;;4705675;30;20051;-86
2023/10/10 06:07:20;;;;;;;1306.80;998.92;;;14.60;99.90;;;;;;4696808;30;20107;-86
2023/10/10 06:09:51;;;;;;;1392.70;999.90;;;14.60;99.90;;;;;;4709483;30;20466;-85
2023/10/10 06:12:19;;;;;;;1305.25;997.35;;;14.60;99.90;;;;;;4696740;30;20082;-85
2023/10/10 06:14:46;;;;;;;1338.50;999.90;;;14.70;99.90;;;;;;4707665;30;20186;-86
2023/10/10 06:17:13;;;;;;;1352.30;999.50;;;14.60;99.90;;;;;;4704215;30;20072;-85
2023/10/10 06:19:39;;;;;;;1348.18;998.05;;;14.60;99.90;;;;;;4708047;30;20045;-86
2023/10/10 06:22:08;;;;;;;1347.38;999.90;;;14.70;99.90;;;;;;4710868;30;20083;-86
2023/10/10 06:24:35;;;;;;;1384.13;999.90;;;14.60;99.90;;;;;;4711390;30;20157;-85
2023/10/10 06:27:01;;;;;;;1319.70;997.10;;;14.70;99.90;;;;;;4710854;30;20132;-85
2023/10/10 06:29:29;;;;;;;1359.90;999.90;;;14.70;99.90;;;;;;4692753;30;20636;-85
2023/10/10 06:31:56;;;;;;;1333.13;999.58;;;14.70;99.90;;;;;;4701065;30;20093;-85
2023/10/10 06:34:25;;;;;;;1411.22;999.90;;;14.80;99.90;;;;;;4693025;30;20062;-85
2023/10/10 06:36:52;;;;;;;1386.25;999.90;;;14.70;99.90;;;;;;4693495;30;20049;-85
2023/10/10 06:39:18;;;;;;;1333.78;998.95;;;14.80;99.90;;;;;;4693369;30;20478;-85
2023/10/10 06:41:54;;;;;;;1409.97;999.90;;;14.80;99.90;;;;;;4691878;30;20065;-86
2023/10/10 06:44:32;;;;;;;1383.53;999.90;;;14.80;99.90;;;;;;4703735;30;20455;-86
2023/10/10 06:47:00;;;;;;;1391.95;999.90;;;14.80;99.90;;;;;;4689783;30;20580;-85
2023/10/10 06:49:26;;;;;;;1392.10;999.90;;;14.90;99.90;;;;;;4689341;30;20056;-87
2023/10/10 06:51:55;;;;;;;1433.60;999.90;;;14.90;99.90;;;;;;4710056;30;20092;-86
2023/10/10 06:54:27;;;;;;;1320.18;995.22;;;15.00;99.90;;;;;;4692763;30;20133;-86
2023/10/10 06:57:04;;;;;;;1446.80;999.90;;;15.00;99.90;;;;;;4705782;30;20048;-85
2023/10/10 06:59:35;;;;;;;1304.10;994.05;;;15.00;99.90;;;;;;4692164;30;20056;-86
2023/10/10 07:02:13;;;;;;;1382.72;999.90;;;15.10;99.90;;;;;;4689061;30;20090;-86
2023/10/10 07:04:39;;;;;;;1382.93;998.88;;;15.20;99.90;;;;;;4696574;30;20399;-85
2023/10/10 07:07:06;;;;;;;1369.35;999.90;;;15.20;99.90;;;;;;4702948;30;20057;-86
2023/10/10 07:09:36;;;;;;;1365.00;999.90;;;15.20;99.90;;;;;;4677679;30;20061;-85
2023/10/10 07:12:09;;;;;;;1203.28;962.97;;;15.20;99.90;;;;;;4706138;30;20092;-85
2023/10/10 07:14:40;;;;;;;1146.80;954.78;;;15.20;99.90;;;;;;4696236;30;20548;-84
2023/10/10 07:17:11;;;;;;;1328.18;994.63;;;15.20;99.90;;;;;;4701534;30;20061;-84
2023/10/10 07:20:54;;;;;;;1316.80;996.80;;;15.30;99.90;;;;;;4709474;30;20521;-85
2023/10/10 07:22:24;;;;;;;1270.82;984.17;;;15.30;99.90;;;;;;4706209;30;20049;-85
2023/10/10 07:24:55;;;;;;;1133.72;943.60;;;15.30;99.90;;;;;;4711429;30;20044;-85
2023/10/10 07:27:30;;;;;;;1152.65;944.42;;;15.40;99.90;;;;;;4707094;30;20132;-85
2023/10/10 07:32:29;;;;;;;1270.72;971.67;;;15.50;99.90;;;;;;4709467;30;20060;-85
2023/10/10 07:34:55;;;;;;;1124.30;929.97;;;15.70;99.90;;;;;;4712301;30;20087;-85
2023/10/10 07:37:22;;;;;;;1208.47;947.92;;;15.70;99.90;;;;;;4710155;30;20145;-85
2023/10/10 07:39:55;;;;;;;1200.38;945.70;;;15.80;99.90;;;;;;4692026;30;20132;-86
2023/10/10 07:42:27;;;;;;;1141.95;926.70;;;15.80;99.90;;;;;;4704092;30;20163;-86
2023/10/10 07:44:54;;;;;;;1157.93;934.40;;;15.90;99.90;;;;;;4694647;30;20087;-85
2023/10/10 07:47:25;;;;;;;1197.18;947.08;;;15.90;99.90;;;;;;4702266;30;20156;-85
2023/10/10 07:49:55;;;;;;;1170.75;935.33;;;16.00;99.90;;;;;;4707714;30;20156;-85
2023/10/10 07:52:22;;;;;;;1208.93;962.67;;;16.10;99.90;;;;;;4703170;30;20064;-85
2023/10/10 07:55:03;;;;;;;1224.47;958.40;;;16.10;99.90;;;;;;4699685;30;20056;-85
2023/10/10 07:57:29;;;;;;;1234.95;964.63;;;16.10;99.90;;;;;;4704225;30;20052;-86
2023/10/10 07:59:57;;;;;;;1150.38;935.10;;;16.20;99.90;;;;;;4699094;30;20140;-86
2023/10/10 08:02:25;;;;;;;1190.45;944.38;;;16.20;99.90;;;;;;4714323;30;20053;-86
2023/10/10 08:04:54;;;;;;;1133.40;934.30;;;16.30;99.90;;;;;;4712559;30;20053;-86
2023/10/10 08:07:20;;;;;;;1200.07;950.17;;;16.30;99.90;;;;;;4714053;30;20390;-86
2023/10/10 08:09:48;;;;;;;1162.45;941.60;;;16.30;99.90;;;;;;4713789;30;20137;-86
2023/10/10 08:12:15;;;;;;;1136.70;928.88;;;16.40;99.90;;;;;;4713835;30;20067;-86
2023/10/10 08:14:42;;;;;;;1158.15;932.45;;;16.40;99.90;;;;;;4713532;30;20061;-86
2023/10/10 08:17:19;;;;;;;1174.05;944.92;;;16.40;99.90;;;;;;4709229;30;20103;-86
2023/10/10 08:19:51;;;;;;;1089.93;911.75;;;16.50;99.90;;;;;;4727102;30;20135;-86
2023/10/10 08:22:19;;;;;;;1209.78;950.83;;;16.50;99.90;;;;;;4713692;30;20518;-85
2023/10/10 08:24:45;;;;;;;1173.20;937.45;;;16.50;99.90;;;;;;4727459;30;20080;-85
2023/10/10 08:27:12;;;;;;;1229.85;961.30;;;16.60;99.90;;;;;;4698673;30;20079;-86
2023/10/10 08:29:38;;;;;;;1143.70;943.72;;;16.60;99.90;;;;;;4713025;30;20454;-86
2023/10/10 08:32:05;;;;;;;1153.80;929.83;;;16.70;99.90;;;;;;4712400;30;20060;-85
2023/10/10 08:34:31;;;;;;;1162.20;943.05;;;16.70;99.90;;;;;;4698863;30;20044;-86
2023/10/10 08:37:03;;;;;;;1170.38;938.97;;;16.80;99.90;;;;;;4712307;30;20405;-85
2023/10/10 08:39:35;;;;;;;1124.50;921.87;;;16.90;99.90;;;;;;4688411;30;20135;-86
2023/10/10 08:42:05;;;;;;;1120.32;917.97;;;17.00;99.90;;;;;;4711211;30;20057;-86
2023/10/10 08:44:38;;;;;;;1022.53;885.95;;;17.10;99.90;;;;;;4712861;30;20070;-86
2023/10/10 08:47:06;;;;;;;1036.40;890.30;;;17.10;99.90;;;;;;4708231;30;20142;-86
2023/10/10 08:49:32;;;;;;;1053.07;902.70;;;17.20;99.90;;;;;;4691181;30;20060;-86
2023/10/10 08:52:02;;;;;;;1156.25;922.53;;;17.20;99.90;;;;;;4712926;30;20395;-86
2023/10/10 08:54:29;;;;;;;1120.15;903.03;;;17.20;99.90;;;;;;4704512;30;20368;-86
2023/10/10 08:57:03;;;;;;;1140.72;913.38;;;17.20;99.90;;;;;;4682339;30;20053;-86
2023/10/10 08:59:31;;;;;;;1094.05;894.53;;;17.20;99.90;;;;;;4696846;30;20060;-86
2023/10/10 09:02:07;;;;;;;1145.93;920.47;;;17.30;99.90;;;;;;4695752;30;20056;-86
2023/10/10 09:04:33;;;;;;;1206.75;951.03;;;17.30;99.90;;;;;;4696384;30;20053;-86
2023/10/10 09:07:08;;;;;;;1187.93;939.15;;;17.40;99.90;;;;;;4712597;30;20084;-86
2023/10/10 09:09:39;;;;;;;1200.47;957.15;;;17.40;99.90;;;;;;4701822;30;20060;-86
2023/10/10 09:12:14;;;;;;;1169.82;939.17;;;17.50;99.90;;;;;;4703201;30;20530;-86
2023/10/10 09:14:43;;;;;;;1187.68;947.38;;;17.60;99.90;;;;;;4709285;30;20089;-86
2023/10/10 09:17:28;;;;;;;1160.18;941.72;;;17.70;99.90;;;;;;4698917;30;20109;-86
2023/10/10 09:19:56;;;;;;;1129.03;924.67;;;17.70;99.90;;;;;;4698655;30;20106;-86
2023/10/10 09:22:42;;;;;;;1120.55;926.08;;;17.70;99.90;;;;;;4712290;30;20064;-86
2023/10/10 09:25:20;;;;;;;997.97;882.63;;;17.80;99.90;;;;;;4699058;30;20439;-86
2023/10/10 09:27:59;;;;;;;923.25;828.70;;;17.80;99.90;;;;;;4701636;30;20118;-86
2023/10/10 09:30:33;;;;;;;938.50;841.17;;;17.90;99.90;;;;;;4698999;30;20052;-86
2023/10/10 09:33:12;;;;;;;982.47;876.42;;;17.90;99.90;;;;;;4692266;30;20563;-86
2023/10/10 09:35:40;;;;;;;941.33;839.90;;;18.00;99.90;;;;;;4710928;30;20373;-86
2023/10/10 09:38:12;;;;;;;941.10;838.67;;;18.00;99.90;;;;;;4712950;30;20063;-86
2023/10/10 09:40:41;;;;;;;961.53;836.50;;;18.10;99.90;;;;;;4697044;30;20049;-86
2023/10/10 09:43:23;;;;;;;1098.22;883.88;;;18.20;99.90;;;;;;4698177;30;20492;-87
2023/10/10 09:45:58;;;;;;;924.75;824.88;;;18.20;99.90;;;;;;4697550;30;20053;-86
2023/10/10 09:48:33;;;;;;;1285.78;943.90;;;18.20;99.90;;;;;;4686333;30;20061;-86
2023/10/10 09:51:08;;;;;;;1075.32;906.03;;;18.30;99.90;;;;;;4702029;30;20053;-87
2023/10/10 09:53:35;;;;;;;1173.13;924.95;;;18.40;99.90;;;;;;4698307;30;20533;-86
2023/10/10 09:56:09;;;;;;;1145.88;906.72;;;18.40;99.90;;;;;;4695355;30;20095;-86
2023/10/10 09:58:42;;;;;;;1301.07;949.50;;;18.50;99.90;;;;;;4696057;30;20398;-86
2023/10/10 10:01:18;;;;;;;1304.32;960.60;;;18.50;99.90;;;;;;4706035;30;20114;-86
2023/10/10 10:03:55;;;;;;;1291.63;956.83;;;18.50;99.90;;;;;;4709962;30;20129;-86
2023/10/10 10:06:40;;;;;;;1307.07;955.00;;;18.50;99.90;;;;;;4696703;30;20134;-85
2023/10/10 10:09:20;;;;;;;1279.75;960.00;;;18.50;99.90;;;;;;4679043;30;20058;-86
2023/10/10 10:12:19;;;;;;;1214.30;924.70;;;18.60;99.90;;;;;;4711578;30;20052;-86
2023/10/10 10:15:04;;;;;;;1280.80;939.20;;;18.60;99.90;;;;;;4697176;30;20485;-86
2023/10/10 10:17:56;;;;;;;1364.38;976.88;;;18.70;99.90;;;;;;4702681;30;20061;-86
2023/10/10 10:20:45;;;;;;;1299.30;967.60;;;18.70;99.90;;;;;;4713004;30;20063;-86
2023/10/10 10:23:25;;;;;;;1181.72;914.83;;;18.80;99.90;;;;;;4706721;30;20128;-86
2023/10/10 10:26:04;;;;;;;1334.88;964.75;;;18.80;99.90;;;;;;4682537;30;20119;-85
2023/10/10 10:28:35;;;;;;;1303.82;966.78;;;18.80;99.90;;;;;;4712883;30;20080;-86
2023/10/10 10:31:06;;;;;;;1157.18;906.85;;;18.90;99.90;;;;;;4678638;30;20057;-86
2023/10/10 10:33:33;;;;;;;1187.57;942.33;;;19.00;99.90;;;;;;4688878;30;20057;-85
2023/10/10 10:36:06;;;;;;;1173.85;936.58;;;19.00;99.90;;;;;;4695051;30;20392;-86
2023/10/10 10:38:34;;;;;;;940.83;832.08;;;19.10;99.90;;;;;;4694670;30;20144;-85
2023/10/10 10:41:07;;;;;;;872.17;778.20;;;19.30;99.90;;;;;;4701623;30;20048;-86
2023/10/10 10:45:07;;;;;;;;;;;;;;;;;;;;;
2023/10/10 10:51:22;;;;;;;977.47;834.75;;;19.60;99.90;;;;;;4679964;30;20057;-92
2023/10/10 10:58:20;;;;;;;;;;;;;;;;;;;;;
2023/10/10 11:01:27;;;;;;;1209.50;934.45;;;20.00;99.90;;;;;;4686344;30;20533;-92
2023/10/10 11:03:23;;;;;;;974.25;817.75;;;20.10;99.90;;;;;;4689284;30;20122;-91
2023/10/10 11:06:14;;;;;;;951.95;808.80;;;20.10;99.90;;;;;;4689755;30;20085;-91
2023/10/10 11:09:33;;;;;;;;;;;;;;;;;;;;;
2023/10/10 11:12:08;;;;;;;825.08;740.72;;;20.30;99.90;;;;;;4704355;30;20073;-91
2023/10/10 11:15:37;;;;;;;879.03;783.60;;;20.40;99.90;;;;;;4707859;30;20110;-91
2023/10/10 11:17:51;;;;;;;697.05;630.95;;;20.40;99.90;;;;;;4711823;30;20072;-90
2023/10/10 11:20:37;;;;;;;;;;;;;;;;;;;;;
2023/10/10 11:23:21;;;;;;;;;;;;;;;;;;;;;
2023/10/10 11:26:14;;;;;;;762.40;684.28;;;20.40;99.90;;;;;;4721686;30;20161;-92
2023/10/10 11:28:51;;;;;;;674.83;609.03;;;20.20;99.90;;;;;;4688934;30;20214;-91
2023/10/10 11:31:23;;;;;;;664.97;599.63;;;20.20;99.90;;;;;;4687878;30;20049;-93
2023/10/10 11:36:51;;;;;;;735.20;662.10;;;20.20;99.90;;;;;;4703941;30;20052;-91
2023/10/10 11:40:01;;;;;;;657.90;594.30;;;20.20;99.90;;;;;;4687572;30;20075;-91
2023/10/10 11:43:21;;;;;;;;;;;;;;;;;;;;;
2023/10/10 11:45:51;;;;;;;718.67;645.53;;;20.40;99.90;;;;;;4704437;30;20048;-91
2023/10/10 11:48:17;;;;;;;645.90;583.83;;;20.60;99.90;;;;;;4694271;30;20057;-91
2023/10/10 11:50:51;;;;;;;636.50;574.97;;;20.60;99.90;;;;;;4701474;30;20055;-90
2023/10/10 11:53:23;;;;;;;747.75;670.35;;;20.80;99.90;;;;;;4701944;30;20086;-91
2023/10/10 11:55:52;;;;;;;670.15;604.60;;;20.90;99.90;;;;;;4694284;30;20097;-90
2023/10/10 11:58:18;;;;;;;727.30;656.65;;;20.80;99.90;;;;;;4686600;30;20083;-91
2023/10/10 12:06:16;;;;;;;712.90;642.58;;;20.70;99.90;;;;;;4711532;30;20079;-92
2023/10/10 12:09:00;;;;;;;;;;;;;;;;;;;;;
2023/10/10 12:11:38;;;;;;;663.60;599.80;;;20.70;99.90;;;;;;4714169;30;20067;-91
2023/10/10 12:14:11;;;;;;;729.25;654.10;;;20.70;99.90;;;;;;4694043;30;20053;-92
2023/10/10 12:16:40;;;;;;;671.47;607.00;;;20.70;99.90;;;;;;4693268;30;20107;-92
2023/10/10 12:19:09;;;;;;;836.97;741.70;;;20.80;99.90;;;;;;4687308;30;20430;-91
2023/10/10 12:21:35;;;;;;;718.83;643.90;;;21.00;99.90;;;;;;4698372;30;20057;-90
2023/10/10 12:24:03;;;;;;;748.00;674.33;;;21.10;99.90;;;;;;4709511;30;20063;-91
2023/10/10 12:26:41;;;;;;;754.97;683.80;;;21.10;99.90;;;;;;4692309;30;20059;-91
2023/10/10 12:29:11;;;;;;;755.33;683.17;;;21.00;99.90;;;;;;4688415;30;20053;-91
2023/10/10 12:31:37;;;;;;;735.88;665.35;;;20.90;99.90;;;;;;4694934;30;20487;-91
2023/10/10 12:34:23;;;;;;;770.03;692.83;;;20.70;99.90;;;;;;4705367;30;20067;-90
2023/10/10 12:37:36;;;;;;;749.25;671.92;;;20.60;99.90;;;;;;4701666;30;20154;-90
2023/10/10 12:40:24;;;;;;;732.60;658.40;;;20.50;99.90;;;;;;4707352;30;20064;-95
2023/10/10 12:42:52;;;;;;;761.95;682.35;;;20.50;99.90;;;;;;4701563;30;20053;-89
2023/10/10 12:45:21;;;;;;;718.70;648.22;;;20.50;99.90;;;;;;4689324;30;20053;-91
2023/10/10 12:47:48;;;;;;;756.50;676.45;;;20.60;99.90;;;;;;4685625;30;20111;-90
2023/10/10 12:50:14;;;;;;;700.15;631.08;;;20.60;99.90;;;;;;4684355;30;20545;-89
2023/10/10 12:53:09;;;;;;;779.55;700.00;;;20.70;99.90;;;;;;4698487;30;20136;-89
2023/10/10 12:56:12;;;;;;;727.20;652.13;;;20.80;99.90;;;;;;4694737;30;20414;-90
2023/10/10 13:01:48;;;;;;;720.30;645.33;;;20.80;99.90;;;;;;4687444;30;20398;-91
2023/10/10 13:04:19;;;;;;;701.15;628.50;;;20.80;99.90;;;;;;4685475;30;20053;-94
2023/10/10 13:06:51;;;;;;;773.92;692.25;;;20.80;99.90;;;;;;4691178;30;20057;-96
2023/10/10 13:09:19;;;;;;;713.42;640.67;;;20.80;99.90;;;;;;4691133;30;20495;-96
2023/10/10 13:11:44;;;;;;;743.40;666.67;;;20.80;99.90;;;;;;4681474;30;20049;-95
2023/10/10 13:14:15;;;;;;;762.40;682.03;;;20.70;99.90;;;;;;4718414;30;20402;-95
2023/10/10 13:19:09;;;;;;;778.08;696.50;;;20.70;99.90;;;;;;4703039;30;20052;-94
2023/10/10 13:21:37;;;;;;;799.22;713.63;;;20.70;99.90;;;;;;4689625;30;20064;-94
2023/10/10 13:24:03;;;;;;;859.03;767.72;;;20.90;99.90;;;;;;4691123;30;20064;-94
2023/10/10 13:26:30;;;;;;;711.10;635.80;;;21.00;99.90;;;;;;4689609;30;20148;-94
2023/10/10 13:28:57;;;;;;;698.17;629.53;;;21.10;99.90;;;;;;4688332;30;20551;-94
2023/10/10 13:31:24;;;;;;;729.38;653.30;;;21.20;99.90;;;;;;4685197;30;20049;-94
2023/10/10 13:33:51;;;;;;;712.00;641.92;;;21.10;99.90;;;;;;4685453;30;20148;-95
2023/10/10 13:36:17;;;;;;;720.50;653.83;;;21.10;99.90;;;;;;4695929;30;20049;-95
2023/10/10 13:38:50;;;;;;;735.03;666.67;;;21.00;99.90;;;;;;4681231;30;20518;-95
2023/10/10 13:41:18;;;;;;;729.55;660.25;;;20.80;99.90;;;;;;4699355;30;20041;-95
2023/10/10 13:43:47;;;;;;;752.45;679.67;;;20.70;99.90;;;;;;4684167;30;20043;-96
2023/10/10 13:46:14;;;;;;;739.88;669.78;;;20.60;99.90;;;;;;4691967;30;20441;-95
2023/10/10 13:48:41;;;;;;;802.97;719.50;;;20.50;99.90;;;;;;4697880;30;20111;-96
2023/10/10 13:51:07;;;;;;;760.17;684.95;;;20.40;99.90;;;;;;4688554;30;20132;-95
2023/10/10 13:53:35;;;;;;;744.80;671.83;;;20.30;99.90;;;;;;4696375;30;20087;-95
2023/10/10 13:56:03;;;;;;;786.78;704.47;;;20.20;99.90;;;;;;4687456;30;20061;-95
2023/10/10 13:58:30;;;;;;;745.92;672.00;;;20.20;99.90;;;;;;4701101;30;20122;-94
2023/10/10 14:01:13;;;;;;;698.45;632.05;;;20.20;99.90;;;;;;4675760;30;20407;-91
2023/10/10 14:03:48;;;;;;;784.47;701.05;;;20.20;99.90;;;;;;4693360;30;20040;-96
2023/10/10 14:06:16;;;;;;;758.75;678.17;;;20.20;99.90;;;;;;4692852;30;20059;-94
2023/10/10 14:08:44;;;;;;;732.35;656.45;;;20.20;99.90;;;;;;4698429;30;20052;-94
2023/10/10 14:11:13;;;;;;;712.30;642.38;;;20.30;99.90;;;;;;4691983;30;20048;-96
2023/10/10 14:13:39;;;;;;;709.58;637.80;;;20.30;99.90;;;;;;4696817;30;20063;-94
2023/10/10 14:16:05;;;;;;;769.78;690.35;;;20.30;99.90;;;;;;4700936;30;20089;-96
2023/10/10 14:18:42;;;;;;;730.53;662.20;;;20.30;99.90;;;;;;4697358;30;20110;-95
2023/10/10 14:21:10;;;;;;;817.90;733.85;;;20.20;99.90;;;;;;4695570;30;20045;-96
2023/10/10 14:23:39;;;;;;;795.42;716.85;;;20.20;99.90;;;;;;4694560;30;20045;-91
2023/10/10 14:26:13;;;;;;;739.55;664.33;;;20.10;99.90;;;;;;4693926;30;20421;-92
2023/10/10 14:28:41;;;;;;;698.38;630.67;;;20.00;99.90;;;;;;4686997;30;20048;-93
2023/10/10 14:31:19;;;;;;;782.05;698.92;;;20.00;99.90;;;;;;4695605;30;20115;-95
2023/10/10 14:36:21;;;;;;;851.95;760.47;;;19.90;99.90;;;;;;4860795;24;19948;-92
2023/10/10 14:38:50;;;;;;;880.20;783.15;;;19.90;99.90;;;;;;4744625;30;20039;-93
2023/10/10 14:41:34;;;;;;;782.05;701.33;;;19.90;99.90;;;;;;4754221;30;20051;-93
2023/10/10 14:44:33;;;;;;;844.08;752.10;;;19.90;99.90;;;;;;4751107;30;20492;-92
2023/10/10 14:47:04;;;;;;;838.03;748.42;;;19.90;99.90;;;;;;4741549;30;20059;-94
2023/10/10 14:49:30;;;;;;;811.53;725.53;;;19.80;99.90;;;;;;4748473;30;20047;-94
2023/10/10 14:52:03;;;;;;;778.65;695.40;;;19.80;99.90;;;;;;4753384;30;20047;-95
2023/10/10 14:54:48;;;;;;;823.30;732.42;;;19.80;99.90;;;;;;4769903;30;20070;-94
2023/10/10 14:57:29;;;;;;;883.65;788.45;;;19.80;99.90;;;;;;4753065;30;20101;-95
2023/10/10 15:00:02;;;;;;;828.28;741.72;;;19.80;99.90;;;;;;4758378;30;20051;-95
2023/10/10 15:02:29;;;;;;;1071.38;894.25;;;19.80;99.90;;;;;;4765139;30;20040;-92
2023/10/10 15:04:55;;;;;;;1067.07;892.45;;;19.80;99.90;;;;;;4736026;30;20059;-94
2023/10/10 15:07:21;;;;;;;993.13;865.88;;;19.80;99.90;;;;;;4744053;30;20081;-95
2023/10/10 15:09:50;;;;;;;1115.90;903.28;;;19.80;99.90;;;;;;4738524;30;20051;-96
2023/10/10 15:12:16;;;;;;;1127.28;909.15;;;19.80;99.90;;;;;;4742557;30;20099;-89
2023/10/10 15:14:44;;;;;;;1002.28;863.00;;;19.90;99.90;;;;;;4754244;30;20140;-92
2023/10/10 15:17:31;;;;;;;1085.15;900.75;;;19.90;99.90;;;;;;4749922;30;20142;-92
2023/10/10 15:19:57;;;;;;;1255.53;967.42;;;19.90;99.90;;;;;;4739338;30;20051;-93